createdAt,value
2024-02-12T00:03:51.184Z,97421.5
2024-02-12T00:09:27.960Z,97419.2
2024-02-12T00:15:04.301Z,97421.9
2024-02-12T00:20:40.877Z,97442.2
2024-02-12T00:26:17.950Z,97401.2
2024-02-12T00:31:53.396Z,97390.7
2024-02-12T00:37:28.561Z,97393.6
2024-02-12T00:43:04.941Z,97381.7
2024-02-12T00:48:41.068Z,97386
2024-02-12T00:54:18.500Z,97390.9
2024-02-12T00:59:55.422Z,97403.8
2024-02-12T01:05:31.245Z,97409.6
2024-02-12T01:11:07.224Z,97403.1
2024-02-12T01:16:42.593Z,97404.7
2024-02-12T01:22:18.327Z,97421.2
2024-02-12T01:27:53.632Z,97403.9
2024-02-12T01:33:29.393Z,97381.4
2024-02-12T01:39:04.869Z,97377.1
2024-02-12T01:44:40.640Z,97352.5
2024-02-12T01:50:16.904Z,97340.4
2024-02-12T01:55:53.319Z,97328.3
2024-02-12T02:01:29.284Z,97335.6
2024-02-12T02:07:05.864Z,97357.8
2024-02-12T02:12:41.058Z,97354.6
2024-02-12T02:18:16.906Z,97370.2
2024-02-12T02:23:53.495Z,97379.7
2024-02-12T02:29:29.049Z,97377.7
2024-02-12T02:35:05.820Z,97345.8
2024-02-12T02:40:41.836Z,97345.3
2024-02-12T02:46:17.936Z,97331.1
2024-02-12T02:51:53.435Z,97319.9
2024-02-12T02:57:30.113Z,97313.1
2024-02-12T03:03:06.625Z,97311.4
2024-02-12T03:08:42.726Z,97321.9
2024-02-12T03:14:18.903Z,97310
2024-02-12T03:19:54.324Z,97311
2024-02-12T03:25:30.240Z,97307.4
2024-02-12T03:31:05.826Z,97301.8
2024-02-12T03:36:41.911Z,97297
2024-02-12T03:42:17.968Z,97288
2024-02-12T03:47:54.515Z,97263.9
2024-02-12T03:53:32.053Z,97271
2024-02-12T03:59:08.784Z,97275
2024-02-12T04:04:44.768Z,97267.2
2024-02-12T04:10:20.954Z,97269.2
2024-02-12T04:15:56.112Z,97270.1
2024-02-12T04:21:32.037Z,97267.2
2024-02-12T04:27:08.596Z,97261.7
2024-02-12T04:32:45.475Z,97270.9
2024-02-12T04:38:21.868Z,97266.8
2024-02-12T04:43:58.142Z,97268.1
2024-02-12T04:49:34.374Z,97263.1
2024-02-12T04:55:10.356Z,97255.1
2024-02-12T05:00:46.093Z,97247
2024-02-12T05:06:21.674Z,97238.7
2024-02-12T05:11:57.342Z,97230.9
2024-02-12T05:17:33.030Z,97227.2
2024-02-12T05:23:10.377Z,97225.7
2024-02-12T05:28:46.776Z,97226
2024-02-12T05:34:22.267Z,97218
2024-02-12T05:39:58.360Z,97218.2
2024-02-12T05:45:34.423Z,97224.5
2024-02-12T05:51:09.629Z,97222.2
2024-02-12T05:56:50.223Z,97217.7
2024-02-12T06:02:25.958Z,97211.1
2024-02-12T06:08:03.316Z,97202.8
2024-02-12T06:13:40.295Z,97191.2
2024-02-12T06:19:17.538Z,97187.3
2024-02-12T06:24:53.661Z,97189.4
2024-02-12T06:30:28.848Z,97189.1
2024-02-12T06:36:04.585Z,97194.5
2024-02-12T06:41:40.179Z,97201.5
2024-02-12T06:47:15.674Z,97203
2024-02-12T06:52:52.242Z,97207.9
2024-02-12T06:58:27.270Z,97205.9
2024-02-12T07:04:03.716Z,97204.8
2024-02-12T07:09:39.782Z,97200
2024-02-12T07:15:14.666Z,97195.8
2024-02-12T07:20:50.214Z,97197.1
2024-02-12T07:26:26.698Z,97207.4
2024-02-12T07:32:02.779Z,97210.2
2024-02-12T07:37:39.207Z,97215.1
2024-02-12T07:43:15.325Z,97220.4
2024-02-12T07:48:51.410Z,97227.1
2024-02-12T07:54:28.163Z,97233.9
2024-02-12T08:00:06.039Z,97241.5
2024-02-12T08:05:43.792Z,97245.7
2024-02-12T08:11:20.496Z,97252.4
2024-02-12T08:16:57.212Z,97248
2024-02-12T08:22:33.094Z,97238.6
2024-02-12T08:28:08.021Z,97234.2
2024-02-12T08:33:44.443Z,97236.1
2024-02-12T08:39:24.136Z,97222.1
2024-02-12T08:45:03.000Z,97229.8
2024-02-12T08:50:38.783Z,97227.1
2024-02-12T08:56:14.992Z,97224.5
2024-02-12T09:01:52.830Z,97216.6
2024-02-12T09:07:28.656Z,97232.1
2024-02-12T09:13:06.892Z,97267.8
2024-02-12T09:18:43.423Z,97318.3
2024-02-12T09:24:19.863Z,97354.2
2024-02-12T09:29:54.854Z,97392.5
2024-02-12T09:35:31.288Z,97425.6
2024-02-12T09:41:07.916Z,97454.1
2024-02-12T09:46:44.305Z,97486.2
2024-02-12T09:52:21.749Z,97521.4
2024-02-12T09:57:58.277Z,97502.7
2024-02-12T10:03:33.509Z,97487.4
2024-02-12T10:09:10.701Z,97507.4
2024-02-12T10:14:46.882Z,97514.3
2024-02-12T10:20:24.517Z,97520.4
2024-02-12T10:26:01.587Z,97520.3
2024-02-12T10:31:41.579Z,97537.1
2024-02-12T10:37:20.357Z,97527.7
2024-02-12T10:42:55.857Z,97523.6
2024-02-12T10:48:32.671Z,97542.2
2024-02-12T10:54:09.060Z,97548.6
2024-02-12T10:59:45.712Z,97587.3
2024-02-12T11:05:22.285Z,97562.8
2024-02-12T11:10:58.181Z,97574
2024-02-12T11:16:34.574Z,97587.3
2024-02-12T11:22:12.690Z,97615.3
2024-02-12T11:27:47.811Z,97642.8
2024-02-12T11:33:23.451Z,97649.1
2024-02-12T11:38:59.291Z,97667.3
2024-02-12T11:44:37.921Z,97668.8
2024-02-12T11:50:14.755Z,97686
2024-02-12T11:55:50.686Z,97721.5
2024-02-12T12:01:25.963Z,97712.5
2024-02-12T12:07:01.512Z,97743.2
2024-02-12T12:12:52.941Z,97761.7
2024-02-12T12:18:37.699Z,97794.8
2024-02-12T12:24:15.200Z,97787.7
2024-02-12T12:29:53.447Z,97806.6
2024-02-12T12:35:32.571Z,97812.3
2024-02-12T12:41:08.692Z,97805.4
2024-02-12T12:46:45.230Z,97860.6
2024-02-12T12:52:21.309Z,97835
2024-02-12T12:57:56.628Z,97845.6
2024-02-12T13:03:32.973Z,97882.1
2024-02-12T13:09:09.675Z,97919.7
2024-02-12T13:14:46.536Z,97936
2024-02-12T13:20:24.609Z,97950.4
2024-02-12T13:26:05.741Z,97964.7
2024-02-12T13:31:42.525Z,97991
2024-02-12T13:37:19.315Z,97996.4
2024-02-12T13:42:55.398Z,98004.6
2024-02-12T13:48:31.615Z,98039.4
2024-02-12T13:54:07.744Z,98041.9
2024-02-12T13:59:43.031Z,98050.5
2024-02-12T14:05:21.006Z,98090.3
2024-02-12T14:10:59.198Z,98084.6
2024-02-12T14:16:35.661Z,98103.6
2024-02-12T14:22:11.361Z,98126.1
2024-02-12T14:27:47.017Z,98167.9
2024-02-12T14:33:23.929Z,98181.2
2024-02-12T14:39:01.121Z,98194.9
2024-02-12T14:44:37.552Z,98203.6
2024-02-12T14:50:16.433Z,98240.6
2024-02-12T14:55:52.792Z,98264.4
2024-02-12T15:01:28.883Z,98275.8
2024-02-12T15:07:05.226Z,98286.8
2024-02-12T15:12:40.865Z,98320
2024-02-12T15:18:17.759Z,98336.1
2024-02-12T15:23:55.546Z,98357.2
2024-02-12T15:29:31.169Z,98391.4
2024-02-12T15:35:07.504Z,98413.4
2024-02-12T15:40:43.588Z,98417.9
2024-02-12T15:46:20.007Z,98421.5
2024-02-12T15:51:55.421Z,98475.1
2024-02-12T15:57:31.044Z,98488.8
2024-02-12T16:03:06.486Z,98492.8
2024-02-12T16:08:43.224Z,98515.6
2024-02-12T16:14:19.338Z,98520.6
2024-02-12T16:19:55.514Z,98550.8
2024-02-12T16:25:32.327Z,98560.4
2024-02-12T16:31:07.897Z,98582.9
2024-02-12T16:36:43.077Z,98589.1
2024-02-12T16:42:18.636Z,98606.8
2024-02-12T16:47:54.506Z,98614.5
2024-02-12T16:53:31.527Z,98613.5
2024-02-12T16:59:08.437Z,98623
2024-02-12T17:04:43.853Z,98633.8
2024-02-12T17:10:19.094Z,98637.4
2024-02-12T17:15:54.661Z,98659.8
2024-02-12T17:21:30.104Z,98672.9
2024-02-12T17:27:05.487Z,98679.5
2024-02-12T17:32:42.828Z,98687.5
2024-02-12T17:38:20.482Z,98700
2024-02-12T17:43:57.158Z,98705.1
2024-02-12T17:49:33.646Z,98719.1
2024-02-12T17:55:09.958Z,98730.1
2024-02-12T18:00:46.089Z,98737.3
2024-02-12T18:06:24.187Z,98752.6
2024-02-12T18:12:01.174Z,98751
2024-02-12T18:17:37.463Z,98755.8
2024-02-12T18:23:14.632Z,98765
2024-02-12T18:28:50.139Z,98783.9
2024-02-12T18:34:26.006Z,98798.2
2024-02-12T18:40:02.324Z,98803.5
2024-02-12T18:45:39.156Z,98814
2024-02-12T18:51:16.041Z,98832.7
2024-02-12T18:56:51.913Z,98847
2024-02-12T19:02:28.109Z,98862.9
2024-02-12T19:08:03.984Z,98876.7
2024-02-12T19:13:40.451Z,98884
2024-02-12T19:19:16.721Z,98895.5
2024-02-12T19:24:53.593Z,98900.1
2024-02-12T19:30:29.253Z,98904.2
2024-02-12T19:36:04.789Z,98907.8
2024-02-12T19:41:40.414Z,98916.2
2024-02-12T19:47:17.516Z,98914.8
2024-02-12T19:52:53.135Z,98912
2024-02-12T19:58:29.141Z,98906.7
2024-02-12T20:04:05.319Z,98912.4
2024-02-12T20:09:41.399Z,98918.1
2024-02-12T20:15:16.659Z,98920.8
2024-02-12T20:20:52.837Z,98919
2024-02-12T20:26:29.777Z,98921.7
2024-02-12T20:32:06.210Z,98922.8
2024-02-12T20:37:42.402Z,98917.9
2024-02-12T20:43:17.625Z,98926.9
2024-02-12T20:48:53.521Z,98923.3
2024-02-12T20:54:32.803Z,98931.5
2024-02-12T21:00:08.076Z,98933.5
2024-02-12T21:05:43.895Z,98934.2
2024-02-12T21:11:20.702Z,98934.9
2024-02-12T21:16:57.237Z,98936.9
2024-02-12T21:22:33.472Z,98941.8
2024-02-12T21:28:10.008Z,98937.8
2024-02-12T21:33:46.237Z,98947.7
2024-02-12T21:39:22.875Z,98955.7
2024-02-12T21:45:00.344Z,98956.5
2024-02-12T21:50:38.410Z,98949.2
2024-02-12T21:56:14.162Z,98944
2024-02-12T22:01:49.893Z,98943.8
2024-02-12T22:07:25.447Z,98945
2024-02-12T22:13:00.775Z,98949.9
2024-02-12T22:18:37.457Z,98951.7
2024-02-12T22:24:13.511Z,98951.1
2024-02-12T22:29:49.646Z,98945
2024-02-12T22:35:25.830Z,98952.7
2024-02-12T22:41:01.584Z,98968.5
2024-02-12T22:46:37.898Z,98957.5
2024-02-12T22:52:13.592Z,98934.6
2024-02-12T22:57:49.196Z,98932.5
2024-02-12T23:03:24.773Z,98923.8
2024-02-12T23:09:00.948Z,98917.8
2024-02-12T23:14:37.066Z,98928.7
2024-02-12T23:20:13.619Z,98924.2
2024-02-12T23:25:50.542Z,98925.7
2024-02-12T23:31:25.890Z,98923.3
2024-02-12T23:37:01.601Z,98906.6
2024-02-12T23:42:42.676Z,98902.3
2024-02-12T23:48:19.245Z,98905.7
2024-02-12T23:53:56.430Z,98908
2024-02-12T23:59:32.184Z,98912.2
